createdAt,value
2019-06-07T00:01:50.233Z,7.87
2019-06-07T00:04:26.021Z,7.80
2019-06-07T00:06:58.429Z,7.90
2019-06-07T00:09:31.714Z,8.13
2019-06-07T00:12:09.158Z,8.37
2019-06-07T00:14:40.436Z,7.83
2019-06-07T00:17:15.378Z,8.57
2019-06-07T00:19:46.491Z,8.47
2019-06-07T00:22:31.531Z,8.50
2019-06-07T00:24:52.852Z,8.73
2019-06-07T00:27:25.028Z,7.80
2019-06-07T00:29:57.401Z,9.03
2019-06-07T00:32:29.725Z,8.10
2019-06-07T00:35:02.462Z,8.37
2019-06-07T00:37:34.695Z,8.63
2019-06-07T00:40:16.217Z,8.53
2019-06-07T00:42:41.129Z,9.10
2019-06-07T00:45:17.990Z,8.50
2019-06-07T00:47:47.605Z,8.77
2019-06-07T00:50:23.450Z,8.77
2019-06-07T00:55:28.467Z,9.23
2019-06-07T00:58:00.967Z,8.93
2019-06-07T01:00:33.346Z,9.00
2019-06-07T01:03:05.606Z,9.00
2019-06-07T01:05:38.112Z,9.03
2019-06-07T01:08:10.288Z,8.93
2019-06-07T01:10:53.506Z,8.53
2019-06-07T01:13:18.818Z,9.17
2019-06-07T01:15:50.980Z,9.40
2019-06-07T01:18:37.241Z,8.90
2019-06-07T01:20:57.388Z,8.97
2019-06-07T01:26:03.737Z,8.87
2019-06-07T01:28:36.083Z,9.17
2019-06-07T01:31:08.285Z,9.37
2019-06-07T01:33:50.963Z,8.70
2019-06-07T01:36:14.526Z,9.30
2019-06-07T01:38:46.766Z,9.57
2019-06-07T01:41:22.021Z,8.53
2019-06-07T01:43:53.080Z,8.57
2019-06-07T01:46:26.808Z,9.50
2019-06-07T01:48:59.153Z,9.33
2019-06-07T01:51:31.579Z,10.10
2019-06-07T01:54:48.802Z,9.20
2019-06-07T01:56:37.755Z,9.30
2019-06-07T01:59:10.012Z,8.80
2019-06-07T02:01:42.338Z,10.07
2019-06-07T02:04:14.591Z,9.20
2019-06-07T02:06:46.785Z,9.40
2019-06-07T02:09:18.959Z,9.63
2019-06-07T02:11:51.233Z,9.83
2019-06-07T02:14:27.376Z,10.27
2019-06-07T02:16:57.366Z,10.60
2019-06-07T02:19:31.690Z,9.43
2019-06-07T02:22:03.632Z,10.87
2019-06-07T02:24:36.640Z,10.93
2019-06-07T02:27:09.097Z,9.73
2019-06-07T02:29:41.324Z,9.93
2019-06-07T02:32:13.505Z,10.20
2019-06-07T02:34:45.832Z,10.43
2019-06-07T02:37:18.171Z,9.50
2019-06-07T02:39:50.409Z,10.23
2019-06-07T02:42:26.113Z,10.30
2019-06-07T02:44:57.029Z,10.43
2019-06-07T02:47:32.351Z,10.37
2019-06-07T02:50:03.563Z,10.37
2019-06-07T02:52:40.198Z,11.03
2019-06-07T02:55:10.123Z,10.43
2019-06-07T02:57:43.164Z,10.47
2019-06-07T03:02:56.296Z,9.90
2019-06-07T03:05:30.548Z,10.53
2019-06-07T03:08:03.290Z,10.97
2019-06-07T03:10:41.603Z,10.50
2019-06-07T03:13:12.873Z,12.13
2019-06-07T03:15:50.240Z,11.30
2019-06-07T03:18:41.537Z,11.30
2019-06-07T03:21:17.101Z,12.00
2019-06-07T03:23:50.805Z,11.67
2019-06-07T03:26:24.596Z,10.80
2019-06-07T03:28:56.887Z,11.57
2019-06-07T03:31:35.294Z,11.47
2019-06-07T03:34:03.374Z,12.27
2019-06-07T03:36:39.202Z,11.87
2019-06-07T03:39:09.762Z,11.17
2019-06-07T03:42:02.320Z,11.80
2019-06-07T03:44:16.750Z,12.23
2019-06-07T03:46:49.166Z,12.23
2019-06-07T03:49:21.558Z,11.60
2019-06-07T03:51:53.781Z,11.27
2019-06-07T03:54:27.170Z,12.40
2019-06-07T03:56:59.408Z,12.27
2019-06-07T03:59:36.221Z,11.97
2019-06-07T04:02:05.518Z,11.60
2019-06-07T04:04:39.565Z,12.10
2019-06-07T04:07:11.885Z,11.63
2019-06-07T04:09:44.319Z,11.87
2019-06-07T04:12:16.641Z,11.77
2019-06-07T04:14:48.922Z,11.83
2019-06-07T04:17:21.262Z,12.43
2019-06-07T04:19:53.721Z,13.33
2019-06-07T04:22:25.934Z,12.57
2019-06-07T04:24:59.689Z,12.50
2019-06-07T04:27:33.081Z,12.10
2019-06-07T04:30:08.252Z,12.77
2019-06-07T04:32:44.944Z,11.80
2019-06-07T04:35:14.813Z,12.27
2019-06-07T04:37:47.099Z,13.33
2019-06-07T04:40:19.407Z,11.63
2019-06-07T04:42:51.706Z,11.97
2019-06-07T04:45:33.724Z,12.77
2019-06-07T04:47:59.120Z,10.10
2019-06-07T04:50:34.305Z,9.27
2019-06-07T04:53:06.436Z,7.90
2019-06-07T04:55:41.616Z,7.90
2019-06-07T04:58:12.737Z,8.30
2019-06-07T05:00:52.431Z,7.87
2019-06-07T05:03:19.226Z,8.73
2019-06-07T05:05:51.726Z,8.30
2019-06-07T05:08:28.496Z,9.67
2019-06-07T05:10:58.213Z,8.63
2019-06-07T05:13:35.065Z,9.57
2019-06-07T05:16:04.717Z,8.87
2019-06-07T05:18:40.132Z,9.00
2019-06-07T05:21:11.042Z,9.10
2019-06-07T05:24:05.248Z,8.97
2019-06-07T05:26:17.325Z,9.47
2019-06-07T05:28:49.680Z,9.07
2019-06-07T05:31:22.100Z,9.17
2019-06-07T05:33:54.274Z,8.43
2019-06-07T05:36:26.819Z,8.10
2019-06-07T05:38:59.222Z,8.87
2019-06-07T05:41:32.295Z,8.83
2019-06-07T05:44:12.789Z,8.70
2019-06-07T05:46:41.976Z,8.87
2019-06-07T05:49:14.734Z,8.90
2019-06-07T05:51:47.020Z,8.43
2019-06-07T05:54:19.283Z,8.40
2019-06-07T05:56:51.568Z,8.20
2019-06-07T05:59:23.853Z,8.93
2019-06-07T06:02:03.204Z,9.33
2019-06-07T06:04:33.809Z,9.10
2019-06-07T06:07:16.271Z,9.03
2019-06-07T06:09:48.781Z,8.50
2019-06-07T06:12:34.606Z,7.80
2019-06-07T06:14:59.125Z,9.40
2019-06-07T06:17:32.114Z,8.63
2019-06-07T06:20:04.792Z,9.10
2019-06-07T06:22:43.043Z,8.90
2019-06-07T06:28:10.822Z,8.33
2019-06-07T06:30:24.014Z,8.63
2019-06-07T06:32:58.536Z,9.17
2019-06-07T06:35:33.757Z,8.80
2019-06-07T06:38:06.025Z,8.93
2019-06-07T06:40:42.233Z,9.30
2019-06-07T06:43:12.558Z,8.77
2019-06-07T06:45:49.750Z,8.17
2019-06-07T06:48:18.851Z,8.50
2019-06-07T06:50:54.149Z,9.27
2019-06-07T06:53:26.434Z,8.33
2019-06-07T06:56:00.333Z,8.80
2019-06-07T06:59:18.645Z,8.87
2019-06-07T07:01:07.338Z,9.70
2019-06-07T07:04:00.131Z,9.70
2019-06-07T07:06:26.025Z,9.33
2019-06-07T07:08:50.750Z,9.40
2019-06-07T07:11:23.140Z,9.13
2019-06-07T07:13:57.066Z,9.43
2019-06-07T07:16:29.479Z,9.07
2019-06-07T07:19:02.673Z,9.77
2019-06-07T07:21:34.989Z,10.00
2019-06-07T07:24:20.942Z,8.90
2019-06-07T07:26:45.223Z,9.00
2019-06-07T07:29:15.440Z,8.47
2019-06-07T07:31:50.832Z,8.40
2019-06-07T07:34:33.681Z,8.90
2019-06-07T07:36:59.641Z,9.47
2019-06-07T07:39:30.277Z,9.73
2019-06-07T07:42:20.005Z,10.03
2019-06-07T07:44:36.680Z,8.70
2019-06-07T07:47:08.909Z,8.80
2019-06-07T07:49:42.193Z,8.53
2019-06-07T07:52:14.382Z,7.83
2019-06-07T07:54:46.826Z,8.77
2019-06-07T07:57:21.567Z,8.20
2019-06-07T08:00:08.249Z,8.97
2019-06-07T08:02:28.310Z,9.07
2019-06-07T08:05:25.496Z,8.87
2019-06-07T08:07:36.174Z,8.17
2019-06-07T08:10:09.056Z,8.33
2019-06-07T08:13:00.775Z,7.73
2019-06-07T08:15:15.976Z,7.20
2019-06-07T08:17:53.978Z,7.50
2019-06-07T08:20:22.626Z,6.63
2019-06-07T08:22:57.789Z,7.40
2019-06-07T08:25:28.982Z,7.80
2019-06-07T08:28:01.368Z,6.60
2019-06-07T08:31:00.062Z,6.53
2019-06-07T08:33:25.231Z,6.33
2019-06-07T08:38:29.306Z,5.80
2019-06-07T08:41:01.239Z,5.90
2019-06-07T08:43:27.666Z,5.03
2019-06-07T08:46:06.474Z,5.63
2019-06-07T08:48:35.389Z,5.20
2019-06-07T08:51:08.957Z,5.20
2019-06-07T08:53:41.617Z,4.50
2019-06-07T08:56:13.986Z,5.10
2019-06-07T08:58:46.261Z,4.67
2019-06-07T09:01:18.857Z,4.23
2019-06-07T09:03:52.087Z,4.50
2019-06-07T09:07:01.995Z,4.80
2019-06-07T09:09:02.003Z,3.80
2019-06-07T09:11:35.018Z,4.70
2019-06-07T09:14:09.143Z,4.00
2019-06-07T09:16:41.870Z,3.80
2019-06-07T09:19:14.084Z,4.20
2019-06-07T09:21:46.474Z,4.17
2019-06-07T09:24:18.728Z,4.17
2019-06-07T09:26:50.995Z,4.20
2019-06-07T09:29:23.483Z,3.83
2019-06-07T09:31:56.165Z,3.70
2019-06-07T09:34:32.206Z,3.43
2019-06-07T09:37:54.752Z,3.93
2019-06-07T09:39:38.877Z,3.93
2019-06-07T09:42:12.668Z,3.40
2019-06-07T09:44:50.225Z,3.60
2019-06-07T09:47:32.655Z,3.90
2019-06-07T09:50:02.348Z,3.67
2019-06-07T09:52:56.363Z,4.13
2019-06-07T09:55:22.925Z,3.80
2019-06-07T09:57:41.355Z,3.50
2019-06-07T10:00:38.717Z,3.80
2019-06-07T10:02:49.523Z,3.80
2019-06-07T10:05:21.910Z,3.63
2019-06-07T10:08:07.561Z,3.30
2019-06-07T10:13:04.381Z,3.40
2019-06-07T10:15:37.042Z,3.73
2019-06-07T10:18:09.475Z,3.57
2019-06-07T10:20:42.826Z,3.40
2019-06-07T10:23:15.189Z,3.30
2019-06-07T10:25:47.657Z,3.00
2019-06-07T10:28:19.948Z,3.63
2019-06-07T10:30:52.506Z,3.40
2019-06-07T10:33:25.894Z,3.30
2019-06-07T10:35:58.194Z,3.17
2019-06-07T10:38:30.597Z,3.27
2019-06-07T10:41:02.913Z,3.50
2019-06-07T10:43:35.471Z,3.30
2019-06-07T10:46:07.836Z,3.23
2019-06-07T10:48:40.153Z,2.70
2019-06-07T10:51:14.734Z,3.20
2019-06-07T10:53:46.908Z,3.50
2019-06-07T10:56:19.537Z,2.80
2019-06-07T10:58:51.951Z,3.00
2019-06-07T11:01:24.271Z,3.10
2019-06-07T11:03:56.581Z,3.00
2019-06-07T11:06:29.176Z,2.83
2019-06-07T11:09:03.800Z,2.90
2019-06-07T11:11:36.226Z,3.17
2019-06-07T11:14:08.810Z,3.13
2019-06-07T11:16:40.820Z,2.73
2019-06-07T11:19:16.322Z,2.63
2019-06-07T11:21:47.247Z,3.10
2019-06-07T11:24:24.426Z,2.90
2019-06-07T11:26:53.843Z,3.00
2019-06-07T11:29:26.378Z,2.80
2019-06-07T11:32:00.579Z,3.27
2019-06-07T11:34:32.908Z,3.23
2019-06-07T11:37:07.210Z,3.13
2019-06-07T11:39:39.429Z,3.20
2019-06-07T11:42:12.042Z,2.60
2019-06-07T11:44:56.215Z,2.50
2019-06-07T11:47:21.720Z,2.60
2019-06-07T11:49:54.048Z,2.60
2019-06-07T11:52:26.406Z,2.70
2019-06-07T11:55:02.801Z,2.70
2019-06-07T11:57:35.285Z,2.50
2019-06-07T12:00:11.487Z,2.87
2019-06-07T12:02:44.041Z,2.67
2019-06-07T12:05:19.027Z,2.43
2019-06-07T12:07:50.729Z,2.43
2019-06-07T12:10:24.591Z,2.30
2019-06-07T12:12:57.143Z,2.60
2019-06-07T12:15:29.905Z,2.43
2019-06-07T12:18:02.722Z,2.50
2019-06-07T12:20:35.053Z,2.47
2019-06-07T12:23:07.427Z,2.30
2019-06-07T12:25:39.693Z,2.50
2019-06-07T12:28:12.680Z,2.37
2019-06-07T12:30:45.200Z,2.37
2019-06-07T12:33:17.794Z,2.60
2019-06-07T12:35:50.213Z,2.57
2019-06-07T12:38:23.156Z,2.40
2019-06-07T12:40:57.865Z,2.30
2019-06-07T12:43:29.560Z,2.40
2019-06-07T12:46:01.876Z,2.30
2019-06-07T12:48:34.468Z,2.30
2019-06-07T12:51:07.136Z,2.50
2019-06-07T12:53:39.455Z,2.40
2019-06-07T12:56:11.933Z,2.50
2019-06-07T12:58:44.303Z,2.37
2019-06-07T13:01:18.092Z,2.57
2019-06-07T13:03:50.605Z,2.50
2019-06-07T13:06:23.716Z,2.30
2019-06-07T13:08:56.338Z,2.60
2019-06-07T13:11:31.561Z,2.70
2019-06-07T13:14:02.737Z,2.50
2019-06-07T13:16:35.101Z,2.60
2019-06-07T13:19:07.512Z,2.70
2019-06-07T13:21:39.829Z,2.67
2019-06-07T13:24:12.327Z,2.60
2019-06-07T13:26:45.110Z,2.20
2019-06-07T13:29:18.754Z,2.87
2019-06-07T13:31:51.289Z,2.30
2019-06-07T13:34:24.301Z,2.50
2019-06-07T13:36:56.663Z,2.57
2019-06-07T13:39:29.843Z,2.60
2019-06-07T13:42:02.113Z,2.40
2019-06-07T13:44:34.375Z,2.60
2019-06-07T13:47:06.782Z,2.53
2019-06-07T13:49:39.128Z,2.40
2019-06-07T13:52:11.570Z,2.57
2019-06-07T13:54:43.856Z,2.70
2019-06-07T13:57:17.928Z,2.60
2019-06-07T13:59:50.325Z,3.10
2019-06-07T14:02:23.640Z,2.57
2019-06-07T14:04:56.810Z,2.80
2019-06-07T14:07:30.066Z,2.80
2019-06-07T14:10:03.165Z,2.83
2019-06-07T14:12:35.665Z,2.70
2019-06-07T14:15:08.475Z,2.53
2019-06-07T14:17:40.942Z,2.50
2019-06-07T14:20:14.509Z,2.60
2019-06-07T14:22:48.558Z,2.50
2019-06-07T14:25:20.988Z,2.67
2019-06-07T14:27:53.374Z,2.70
2019-06-07T14:30:26.107Z,2.50
2019-06-07T14:33:01.642Z,2.50
2019-06-07T14:35:34.178Z,2.40
2019-06-07T14:38:07.447Z,2.80
2019-06-07T14:40:39.742Z,2.80
2019-06-07T14:43:13.100Z,2.73
2019-06-07T14:45:45.414Z,2.77
2019-06-07T14:48:17.708Z,2.47
2019-06-07T14:50:51.150Z,2.33
2019-06-07T14:53:24.499Z,2.73
2019-06-07T14:55:57.289Z,2.63
2019-06-07T14:58:29.494Z,2.30
2019-06-07T15:01:01.916Z,2.63
2019-06-07T15:03:34.831Z,2.50
2019-06-07T15:06:07.207Z,2.30
2019-06-07T15:08:39.589Z,2.67
2019-06-07T15:11:11.799Z,2.90
2019-06-07T15:13:44.435Z,2.90
2019-06-07T15:16:16.653Z,2.50
2019-06-07T15:18:49.642Z,2.30
2019-06-07T15:21:22.107Z,2.60
2019-06-07T15:23:55.523Z,2.60
2019-06-07T15:26:28.348Z,2.63
2019-06-07T15:29:00.731Z,2.40
2019-06-07T15:31:34.564Z,2.90
2019-06-07T15:34:07.117Z,2.97
2019-06-07T15:36:39.337Z,2.73
2019-06-07T15:39:11.566Z,2.70
2019-06-07T15:41:43.851Z,2.57
2019-06-07T15:44:16.086Z,2.60
2019-06-07T15:46:48.271Z,2.50
2019-06-07T15:49:20.646Z,2.80
2019-06-07T15:51:52.906Z,2.73
2019-06-07T15:54:25.335Z,3.00
2019-06-07T15:57:00.694Z,2.70
2019-06-07T15:59:35.839Z,2.87
2019-06-07T16:02:10.201Z,2.90
2019-06-07T16:04:42.494Z,2.70
2019-06-07T16:07:14.796Z,2.40
2019-06-07T16:09:47.150Z,2.67
2019-06-07T16:12:19.426Z,2.80
2019-06-07T16:14:51.841Z,2.93
2019-06-07T16:17:25.340Z,2.60
2019-06-07T16:19:57.815Z,2.80
2019-06-07T16:22:30.168Z,2.73
2019-06-07T16:25:02.621Z,2.50
2019-06-07T16:27:36.656Z,2.63
2019-06-07T16:30:09.885Z,3.40
2019-06-07T16:32:44.219Z,2.40
2019-06-07T16:35:16.906Z,3.00
2019-06-07T16:37:52.971Z,2.80
2019-06-07T16:40:26.622Z,3.10
2019-06-07T16:43:13.389Z,2.70
2019-06-07T16:45:32.900Z,3.37
2019-06-07T16:48:05.650Z,2.80
2019-06-07T16:50:38.755Z,2.83
2019-06-07T16:53:11.279Z,2.70
2019-06-07T16:55:44.813Z,3.07
2019-06-07T16:58:17.213Z,2.77
2019-06-07T17:00:49.889Z,3.00
2019-06-07T17:03:22.327Z,3.10
2019-06-07T17:05:54.618Z,3.03
2019-06-07T17:08:26.840Z,3.10
2019-06-07T17:10:59.054Z,3.27
2019-06-07T17:13:33.710Z,3.10
2019-06-07T17:16:05.583Z,3.57
2019-06-07T17:18:38.970Z,3.00
2019-06-07T17:21:11.278Z,3.53
2019-06-07T17:23:43.853Z,3.17
2019-06-07T17:26:16.145Z,3.00
2019-06-07T17:28:49.986Z,3.10
2019-06-07T17:31:22.403Z,3.30
2019-06-07T17:33:54.635Z,3.30
2019-06-07T17:36:27.002Z,3.80
2019-06-07T17:38:59.407Z,3.00
2019-06-07T17:41:41.877Z,3.43
2019-06-07T17:44:05.943Z,3.60
2019-06-07T17:46:38.283Z,3.70
2019-06-07T17:49:10.696Z,3.70
2019-06-07T17:51:44.117Z,3.77
2019-06-07T17:54:16.545Z,3.50
2019-06-07T17:56:48.785Z,3.40
2019-06-07T17:59:21.190Z,4.00
2019-06-07T18:02:13.425Z,4.37
2019-06-07T18:04:28.765Z,3.60
2019-06-07T18:07:01.185Z,3.60
2019-06-07T18:09:34.809Z,3.60
2019-06-07T18:12:07.230Z,3.63
2019-06-07T18:14:39.450Z,3.80
2019-06-07T18:17:11.806Z,3.90
2019-06-07T18:19:45.298Z,4.30
2019-06-07T18:22:18.430Z,3.80
2019-06-07T18:24:50.701Z,4.07
2019-06-07T18:27:23.098Z,4.10
2019-06-07T18:29:55.240Z,3.60
2019-06-07T18:32:27.522Z,4.37
2019-06-07T18:35:00.458Z,3.83
2019-06-07T18:37:32.961Z,3.80
2019-06-07T18:40:05.441Z,4.30
2019-06-07T18:42:37.903Z,4.27
2019-06-07T18:45:10.680Z,3.30
2019-06-07T18:47:42.932Z,3.90
2019-06-07T18:50:15.125Z,4.33
2019-06-07T18:52:48.662Z,4.00
2019-06-07T18:55:23.141Z,4.17
2019-06-07T18:57:56.454Z,3.40
2019-06-07T19:00:29.162Z,4.20
2019-06-07T19:03:15.516Z,3.80
2019-06-07T19:05:48.098Z,4.00
2019-06-07T19:08:20.430Z,3.70
2019-06-07T19:10:52.772Z,4.30
2019-06-07T19:13:25.250Z,3.97
2019-06-07T19:15:57.536Z,3.77
2019-06-07T19:18:30.068Z,4.20
2019-06-07T19:21:02.702Z,3.80
2019-06-07T19:23:38.570Z,3.90
2019-06-07T19:26:10.892Z,4.20
2019-06-07T19:28:43.339Z,4.20
2019-06-07T19:31:15.958Z,4.63
2019-06-07T19:33:49.479Z,4.40
2019-06-07T19:36:22.035Z,4.47
2019-06-07T19:38:56.311Z,4.27
2019-06-07T19:41:31.248Z,4.57
2019-06-07T19:44:03.624Z,4.20
2019-06-07T19:46:35.909Z,4.37
2019-06-07T19:49:08.373Z,4.50
2019-06-07T19:51:46.115Z,3.93
2019-06-07T19:54:25.702Z,4.03
2019-06-07T19:57:01.711Z,4.77
2019-06-07T19:59:35.145Z,4.57
2019-06-07T20:02:08.263Z,4.73
2019-06-07T20:04:40.740Z,5.27
2019-06-07T20:07:13.076Z,4.40
2019-06-07T20:09:45.531Z,4.90
2019-06-07T20:12:17.949Z,4.47
2019-06-07T20:14:53.750Z,4.70
2019-06-07T20:17:24.136Z,5.03
2019-06-07T20:19:56.482Z,5.03
2019-06-07T20:22:28.774Z,4.90
2019-06-07T20:25:01.089Z,5.13
2019-06-07T20:27:33.634Z,4.77
2019-06-07T20:30:06.802Z,4.90
2019-06-07T20:32:39.380Z,4.63
2019-06-07T20:35:12.294Z,5.07
2019-06-07T20:37:44.716Z,4.87
2019-06-07T20:40:24.398Z,4.50
2019-06-07T20:42:51.429Z,4.87
2019-06-07T20:45:32.962Z,5.03
2019-06-07T20:48:06.407Z,4.47
2019-06-07T20:50:39.076Z,5.23
2019-06-07T20:53:11.370Z,4.33
2019-06-07T20:55:43.609Z,3.63
2019-06-07T20:58:15.937Z,2.87
2019-06-07T21:00:48.346Z,2.47
2019-06-07T21:03:22.203Z,2.63
2019-06-07T21:05:54.704Z,2.40
2019-06-07T21:08:28.101Z,2.30
2019-06-07T21:11:01.570Z,2.20
2019-06-07T21:13:34.890Z,2.30
2019-06-07T21:16:08.269Z,2.53
2019-06-07T21:18:40.568Z,2.57
2019-06-07T21:21:12.985Z,2.47
2019-06-07T21:23:45.390Z,2.67
2019-06-07T21:26:17.656Z,2.60
2019-06-07T21:28:50.051Z,3.17
2019-06-07T21:31:22.496Z,2.70
2019-06-07T21:33:54.744Z,2.80
2019-06-07T21:36:26.986Z,2.73
2019-06-07T21:39:00.225Z,3.00
2019-06-07T21:41:33.788Z,3.10
2019-06-07T21:44:06.304Z,2.80
2019-06-07T21:46:38.929Z,2.70
2019-06-07T21:49:12.827Z,3.10
2019-06-07T21:51:45.145Z,3.00
2019-06-07T21:54:17.592Z,3.10
2019-06-07T21:56:49.936Z,2.93
2019-06-07T21:59:22.275Z,3.03
2019-06-07T22:01:54.645Z,3.37
2019-06-07T22:04:27.927Z,2.97
2019-06-07T22:07:00.625Z,3.30
2019-06-07T22:09:32.917Z,3.00
2019-06-07T22:12:06.017Z,2.70
2019-06-07T22:14:38.581Z,2.90
2019-06-07T22:17:11.021Z,3.00
2019-06-07T22:19:43.512Z,3.20
2019-06-07T22:22:15.672Z,2.87
2019-06-07T22:24:48.112Z,3.20
2019-06-07T22:27:20.426Z,3.10
2019-06-07T22:29:52.635Z,3.00
2019-06-07T22:32:24.965Z,2.73
2019-06-07T22:34:57.137Z,2.70
2019-06-07T22:37:29.459Z,3.23
2019-06-07T22:40:01.651Z,3.30
2019-06-07T22:42:34.038Z,3.10
2019-06-07T22:45:07.764Z,2.90
2019-06-07T22:47:40.495Z,3.20
2019-06-07T22:50:14.352Z,3.03
2019-06-07T22:52:46.737Z,2.97
2019-06-07T22:55:18.997Z,3.17
2019-06-07T22:57:58.504Z,3.20
2019-06-07T23:00:32.651Z,2.90
2019-06-07T23:03:05.251Z,3.30
2019-06-07T23:05:37.778Z,2.90
2019-06-07T23:08:11.022Z,2.57
2019-06-07T23:10:43.449Z,2.90
2019-06-07T23:13:15.677Z,2.90
2019-06-07T23:15:48.032Z,3.10
2019-06-07T23:18:20.277Z,3.10
2019-06-07T23:20:52.838Z,3.00
2019-06-07T23:23:25.313Z,3.03
2019-06-07T23:25:57.471Z,3.17
2019-06-07T23:28:29.783Z,3.10
2019-06-07T23:31:02.330Z,3.03
2019-06-07T23:33:34.656Z,3.13
2019-06-07T23:36:06.910Z,3.00
2019-06-07T23:38:39.262Z,3.50
2019-06-07T23:41:11.600Z,3.20
2019-06-07T23:43:43.876Z,3.00
2019-06-07T23:46:17.369Z,3.17
2019-06-07T23:48:49.712Z,3.20
2019-06-07T23:51:22.311Z,3.23
2019-06-07T23:53:54.745Z,3.20
2019-06-07T23:56:27.217Z,3.10
2019-06-07T23:58:59.553Z,3.30
